WetterOnline ( https://www.wetteronline.de )

Wetter aktuell Gottlieben

Aktuelles Wetter: Konstanz (397m)

6-stündlich | Neueste Meldungen
Ortszeit Temperatur Wetter
Mo, 30.01. 1:00 -0.9° C leicht bewölkt
So, 29.01. 19:00 0.4° C bedeckt
So, 29.01. 13:00 0.5° C bedeckt
So, 29.01. 7:00 0.1° C bedeckt
So, 29.01. 1:00 -0.6° C fast wolkenlos
Sa, 28.01. 19:00 0.8° C bedeckt
Sa, 28.01. 13:00 0.5° C bedeckt
Sa, 28.01. 7:00 -0.6° C bewölkt
Ortszeit Temperatur Wetter
Mo, 30.01. 6:00 -1.4° C bewölkt
Mo, 30.01. 5:40 -1.1° C bedeckt
Mo, 30.01. 5:30 -1.1° C wolkig
Mo, 30.01. 5:20 -1.1° C wolkig
Mo, 30.01. 5:10 -0.9° C bedeckt
Mo, 30.01. 5:00 -0.9° C bewölkt
Mo, 30.01. 4:50 -0.9° C bewölkt
Mo, 30.01. 4:30 -1.1° C wolkig
Mo, 30.01. 4:00 -1.2° C bewölkt
Mo, 30.01. 3:30 -1.1° C leicht bewölkt
Mo, 30.01. 3:00 -1.5° C leicht bewölkt
Ortszeit Relative Feuchte Sichtweite
Mo, 30.01. 1:00 74% 24 km
So, 29.01. 19:00 72% 35 km
So, 29.01. 13:00 69% 35 km
So, 29.01. 7:00 70% 50 km
So, 29.01. 1:00 78% 35 km
Sa, 28.01. 19:00 72% 35 km
Sa, 28.01. 13:00 73% 29 km
Sa, 28.01. 7:00 83% 22 km
Ortszeit Relative Feuchte Sichtweite
Mo, 30.01. 6:00 76% 24 km
Mo, 30.01. 5:40 76% -
Mo, 30.01. 5:30 76% 21 km
Mo, 30.01. 5:20 76% -
Mo, 30.01. 5:10 75% -
Mo, 30.01. 5:00 76% 22 km
Mo, 30.01. 4:50 76% -
Mo, 30.01. 4:30 76% 21 km
Mo, 30.01. 4:00 76% 21 km
Mo, 30.01. 3:30 75% 23 km
Mo, 30.01. 3:00 76% 22 km
Ortszeit Niederschlagsmenge Niederschlagsart
Mo, 30.01. 1:00 0.0 l/m2 in 6 Std. -
So, 29.01. 19:00 0.0 l/m2 in 12 Std. -
So, 29.01. 13:00 0.0 l/m2 in 6 Std. -
So, 29.01. 7:00 0.0 l/m2 in 12 Std. -
So, 29.01. 1:00 0.0 l/m2 in 6 Std. -
Sa, 28.01. 19:00 0.0 l/m2 in 12 Std. -
Sa, 28.01. 13:00 0.0 l/m2 in 6 Std. -
Sa, 28.01. 7:00 0.1 l/m2 in 12 Std. Schnee, Regen
Ortszeit Niederschlagsmenge Niederschlagsart
Mo, 30.01. 6:00 0.0 l/m2 in 1 Std. -
Mo, 30.01. 5:40 keine Meldung -
Mo, 30.01. 5:30 0.0 l/m2 in 30 Min -
Mo, 30.01. 5:20 keine Meldung -
Mo, 30.01. 5:10 keine Meldung -
Mo, 30.01. 5:00 0.0 l/m2 in 1 Std. -
Mo, 30.01. 4:50 keine Meldung -
Mo, 30.01. 4:30 0.0 l/m2 in 30 Min -
Mo, 30.01. 4:00 0.0 l/m2 in 1 Std. -
Mo, 30.01. 3:30 0.0 l/m2 in 30 Min -
Mo, 30.01. 3:00 0.0 l/m2 in 1 Std. -
Ortszeit Stärke Spitze Richtung
km/h Bft. km/h Grad Sektor
Mo, 30.01. 1:00 9 2 17 270° W
So, 29.01. 19:00 7 2 15 240° SW
So, 29.01. 13:00 4 1 25 50° NO
So, 29.01. 7:00 13 3 26 40° NO
So, 29.01. 1:00 9 2 20 30° NO
Sa, 28.01. 19:00 11 2 32 60° NO
Sa, 28.01. 13:00 14 3 32 50° NO
Sa, 28.01. 7:00 9 2 24 40° NO
Ortszeit Stärke Spitze Richtung
km/h Bft. km/h Grad Sektor
Mo, 30.01. 6:00 22 4 40 240° SW
Mo, 30.01. 5:40 25 4 - 240° SW
Mo, 30.01. 5:30 22 4 36 260° W
Mo, 30.01. 5:20 22 4 - 260° W
Mo, 30.01. 5:10 24 4 - 250° W
Mo, 30.01. 5:00 17 3 31 260° W
Mo, 30.01. 4:50 17 3 - 260° W
Mo, 30.01. 4:30 14 3 25 270° W
Mo, 30.01. 4:00 13 3 22 270° W
Mo, 30.01. 3:30 11 2 19 260° W
Mo, 30.01. 3:00 6 1 20 240° SW
Ortszeit Untergrenze Bedeckung Gattung
total tief tief mittel hoch
Mo, 30.01. 1:00 7800 m 5/8 0/8 - - -
So, 29.01. 19:00 630 m 8/8 8/8 - - -
So, 29.01. 13:00 600 m 8/8 8/8 - - -
So, 29.01. 7:00 660 m 8/8 8/8 - - -
So, 29.01. 1:00 1020 m 1/8 1/8 - - -
Sa, 28.01. 19:00 1050 m 8/8 8/8 - - -
Sa, 28.01. 13:00 660 m 8/8 8/8 - - -
Sa, 28.01. 7:00 480 m 7/8 7/8 - - -
Ortszeit Bedeckungsgrad in Achtel und Wolkenuntergrenze
Mo, 30.01. 6:00 7(4200m) 8(7800m)
Mo, 30.01. 5:40 8
Mo, 30.01. 5:30 2(540m) 7(4200m) 8(7500m)
Mo, 30.01. 5:20 2(540m) 7(4200m) 8(7500m)
Mo, 30.01. 5:10 8
Mo, 30.01. 5:00 7(540m) 7(4200m) 8(8700m)
Mo, 30.01. 4:50 7(540m) 7(4200m) 8(8700m)
Mo, 30.01. 4:30 2(570m) 8(9000m) 8(10500m)
Mo, 30.01. 4:00 6(6900m) 8(9000m) 8(10500m)
Mo, 30.01. 3:30 5(9000m) 5(10500m)
Mo, 30.01. 3:00 6(10500m)
Ortszeit Luftdruck NN (hPa) Tendenz (hPa in 3 Std.)
Mo, 30.01. 1:00 1028 - 1,4
So, 29.01. 19:00 1029 + 1,3
So, 29.01. 13:00 1029 - 0,1
So, 29.01. 7:00 1029 + 0,2
So, 29.01. 1:00 1029 + 0,2
Sa, 28.01. 19:00 1028 + 1,6
Sa, 28.01. 13:00 1026 + 0,2
Sa, 28.01. 7:00 1024 + 0,8
Ortszeit Luftdruck NN (hPa) Tendenz (hPa in 3 Std.)
Mo, 30.01. 6:00 1027 - 0,2
Mo, 30.01. 5:40 1027 keine Meldung
Mo, 30.01. 5:30 1028 + 0,6
Mo, 30.01. 5:20 1028 keine Meldung
Mo, 30.01. 5:10 1028 keine Meldung
Mo, 30.01. 5:00 1027 + 0,1
Mo, 30.01. 4:50 1027 keine Meldung
Mo, 30.01. 4:30 1028 0,0
Mo, 30.01. 4:00 1027 - 0,6
Mo, 30.01. 3:30 1027 - 1,4
Mo, 30.01. 3:00 1027 - 1,6
Ortszeit Schneehöhe (cm)
Mo, 30.01. 1:00 0
So, 29.01. 19:00 0
So, 29.01. 13:00 0
So, 29.01. 7:00 0
So, 29.01. 1:00 0
Sa, 28.01. 19:00 0
Sa, 28.01. 13:00 0
Sa, 28.01. 7:00 0
Ortszeit Schneehöhe (cm)
Mo, 30.01. 6:00 0
Mo, 30.01. 5:40 0
Mo, 30.01. 5:30 0
Mo, 30.01. 5:20 0
Mo, 30.01. 5:10 0
Mo, 30.01. 5:00 0
Mo, 30.01. 4:50 0
Mo, 30.01. 4:30 0
Mo, 30.01. 4:00 0
Mo, 30.01. 3:30 0
Mo, 30.01. 3:00 0
Link zu dieser Seite / Seite empfehlen

Das Wetter in ...